Time;durP1;ratioP1;P1;durP2;ratioP2;P2;SDS_P1;SDS_P2;PMS_P1;PMS_P2;Temp;Humidity;BMP_temperature;BMP_pressure;BME280_temperature;BME280_humidity;BME280_pressure;Samples;Min_cycle;Max_cycle;Signal;HPM_P1;HPM_P2
2022/07/19 00:00:46;;;;;;;3.42;2.47;;;22.80;71.30;;;;;;4971868;28;20031;-50
2022/07/19 00:03:17;;;;;;;6.28;2.45;;;22.70;72.20;;;;;;4971730;28;20087;-46
2022/07/19 00:05:43;;;;;;;5.63;2.30;;;22.70;74.30;;;;;;4971907;28;20027;-52
2022/07/19 00:08:09;;;;;;;5.28;2.65;;;22.60;75.50;;;;;;4969921;28;20160;-49
2022/07/19 00:10:35;;;;;;;6.05;2.53;;;22.50;76.20;;;;;;4974568;28;20378;-46
2022/07/19 00:13:00;;;;;;;4.10;2.42;;;22.50;77.00;;;;;;4991353;28;20067;-45
2022/07/19 00:15:26;;;;;;;3.92;2.50;;;22.40;76.00;;;;;;4991057;28;20034;-47
2022/07/19 00:17:51;;;;;;;7.88;3.08;;;22.30;76.50;;;;;;4989320;28;20111;-49
2022/07/19 00:20:20;;;;;;;7.80;3.28;;;22.30;75.30;;;;;;4991083;28;20033;-46
2022/07/19 00:22:45;;;;;;;6.72;2.90;;;22.20;75.90;;;;;;4975191;28;20030;-45
2022/07/19 00:25:12;;;;;;;6.28;2.90;;;21.90;75.00;;;;;;4971585;28;20034;-43
2022/07/19 00:27:37;;;;;;;6.95;3.53;;;21.80;75.40;;;;;;4971109;28;20371;-48
2022/07/19 00:30:06;;;;;;;10.02;3.30;;;21.70;75.50;;;;;;4971607;28;20060;-49
2022/07/19 00:32:31;;;;;;;6.68;3.20;;;21.70;76.90;;;;;;4971450;28;20027;-48
2022/07/19 00:34:57;;;;;;;7.90;3.38;;;21.70;77.50;;;;;;4971145;28;20092;-49
2022/07/19 00:37:22;;;;;;;6.00;2.53;;;21.70;78.80;;;;;;4984415;28;20038;-52
2022/07/19 00:39:48;;;;;;;8.13;2.88;;;21.70;77.70;;;;;;4990830;28;20064;-47
2022/07/19 00:42:15;;;;;;;6.75;3.05;;;21.70;77.20;;;;;;4990706;28;20080;-46
2022/07/19 00:44:41;;;;;;;4.38;2.92;;;21.70;78.00;;;;;;4989008;28;20046;-48
2022/07/19 00:47:07;;;;;;;6.88;2.97;;;21.60;78.50;;;;;;4971411;28;20525;-47
2022/07/19 00:49:32;;;;;;;4.20;2.60;;;21.50;79.10;;;;;;4971294;28;20050;-49
2022/07/19 00:51:59;;;;;;;10.30;4.22;;;21.50;79.60;;;;;;4970968;28;20046;-49
2022/07/19 00:54:25;;;;;;;6.35;2.70;;;21.50;79.20;;;;;;4971133;28;20026;-49
2022/07/19 00:56:51;;;;;;;5.72;2.95;;;21.50;78.70;;;;;;4970715;28;20487;-50
2022/07/19 00:59:18;;;;;;;3.85;2.72;;;21.60;78.50;;;;;;4971104;28;20046;-48
2022/07/19 01:01:44;;;;;;;6.60;2.92;;;21.60;78.20;;;;;;4970699;28;20031;-47
2022/07/19 01:04:10;;;;;;;6.32;2.90;;;21.60;77.30;;;;;;4970534;28;20026;-50
2022/07/19 01:06:36;;;;;;;3.60;2.53;;;21.60;77.90;;;;;;4970804;28;20030;-50
2022/07/19 01:09:03;;;;;;;5.63;3.13;;;21.60;77.70;;;;;;4970976;28;20019;-48
2022/07/19 01:11:28;;;;;;;5.15;3.28;;;21.60;77.50;;;;;;4980646;28;20362;-47
2022/07/19 01:13:54;;;;;;;7.65;3.00;;;21.60;77.00;;;;;;4990404;28;20045;-45
2022/07/19 01:16:19;;;;;;;7.20;3.10;;;21.60;77.00;;;;;;4990255;28;20035;-46
2022/07/19 01:18:45;;;;;;;3.00;2.40;;;21.50;76.80;;;;;;4989543;28;20073;-47
2022/07/19 01:21:21;;;;;;;3.60;2.88;;;21.40;77.80;;;;;;4970594;28;20030;-48
2022/07/19 01:23:47;;;;;;;8.13;3.00;;;21.40;79.00;;;;;;4970388;28;20033;-46
2022/07/19 01:26:12;;;;;;;5.53;3.05;;;21.20;79.30;;;;;;4970931;28;20030;-48
2022/07/19 01:28:38;;;;;;;5.85;2.97;;;21.20;79.60;;;;;;4969964;28;20102;-45
2022/07/19 01:31:04;;;;;;;8.50;3.20;;;21.20;79.60;;;;;;4970552;28;20030;-50
2022/07/19 01:33:29;;;;;;;4.15;3.05;;;21.10;80.50;;;;;;4970383;28;20066;-48
2022/07/19 01:35:55;;;;;;;3.63;2.92;;;21.00;80.40;;;;;;4989597;28;20502;-46
2022/07/19 01:38:20;;;;;;;5.43;2.60;;;21.00;80.40;;;;;;4989377;28;20393;-48
2022/07/19 01:40:46;;;;;;;6.25;3.08;;;20.90;80.70;;;;;;4990048;28;20042;-51
2022/07/19 01:43:11;;;;;;;4.40;2.75;;;20.80;81.10;;;;;;4989214;28;20577;-45
2022/07/19 01:45:37;;;;;;;4.78;2.72;;;20.70;81.80;;;;;;4989976;28;20034;-47
2022/07/19 01:48:03;;;;;;;5.25;2.97;;;20.60;81.80;;;;;;4989575;28;20026;-46
2022/07/19 01:50:28;;;;;;;10.18;3.28;;;20.50;82.20;;;;;;4989349;28;20028;-50
2022/07/19 01:52:54;;;;;;;8.00;2.97;;;20.50;82.90;;;;;;4989468;28;20030;-43
2022/07/19 01:55:19;;;;;;;7.47;2.80;;;20.50;83.60;;;;;;4991642;28;20031;-48
2022/07/19 01:57:46;;;;;;;10.52;3.50;;;20.40;81.40;;;;;;4990409;28;20544;-47
2022/07/19 02:00:11;;;;;;;3.30;2.97;;;20.40;80.10;;;;;;4978916;28;20034;-49
2022/07/19 02:02:37;;;;;;;7.53;3.15;;;20.40;80.50;;;;;;4970175;28;20038;-44
2022/07/19 02:05:03;;;;;;;6.57;4.53;;;20.30;81.50;;;;;;4971314;28;20026;-50
2022/07/19 02:07:29;;;;;;;7.72;3.05;;;20.20;82.60;;;;;;4969131;28;20019;-47
2022/07/19 02:09:57;;;;;;;3.78;2.47;;;20.30;83.80;;;;;;4969915;28;20031;-48
2022/07/19 02:12:22;;;;;;;13.40;3.08;;;20.20;82.90;;;;;;4970138;28;20490;-48
2022/07/19 02:14:47;;;;;;;10.05;3.47;;;20.10;82.10;;;;;;4968951;28;20041;-45
2022/07/19 02:17:13;;;;;;;7.57;2.50;;;20.00;82.40;;;;;;4969728;28;20035;-50
2022/07/19 02:19:39;;;;;;;3.78;2.97;;;20.10;82.50;;;;;;4974279;28;20034;-43
2022/07/19 02:22:04;;;;;;;6.95;2.70;;;20.10;83.30;;;;;;4989433;28;20030;-48
2022/07/19 02:24:30;;;;;;;6.07;2.97;;;20.10;82.50;;;;;;4987022;28;20030;-50
2022/07/19 02:26:55;;;;;;;8.18;3.20;;;20.20;82.20;;;;;;4969673;28;20397;-48
2022/07/19 02:29:21;;;;;;;7.57;3.30;;;20.20;82.60;;;;;;4970152;28;20031;-43
2022/07/19 02:31:46;;;;;;;4.22;2.95;;;20.20;82.20;;;;;;4970126;28;20042;-51
2022/07/19 02:34:12;;;;;;;4.00;3.17;;;20.00;82.50;;;;;;4969988;28;20364;-48
2022/07/19 02:36:37;;;;;;;8.15;3.22;;;20.00;82.90;;;;;;4970001;28;20053;-46
2022/07/19 02:39:03;;;;;;;6.45;3.75;;;20.00;83.00;;;;;;4969529;28;20023;-46
2022/07/19 02:41:28;;;;;;;8.40;3.22;;;20.00;82.90;;;;;;4988980;28;20510;-47
2022/07/19 02:43:54;;;;;;;7.00;3.13;;;20.10;82.50;;;;;;4988769;28;20041;-48
2022/07/19 02:46:19;;;;;;;8.48;3.20;;;20.10;82.20;;;;;;4988795;28;20049;-46
2022/07/19 02:48:45;;;;;;;9.38;3.25;;;20.10;82.00;;;;;;4988125;28;20031;-50
2022/07/19 02:51:14;;;;;;;7.38;3.20;;;20.00;82.20;;;;;;4976497;28;20035;-47
2022/07/19 02:53:39;;;;;;;8.40;3.28;;;19.90;82.70;;;;;;4988775;28;20023;-50
2022/07/19 02:56:05;;;;;;;10.35;3.22;;;19.90;82.80;;;;;;4988699;28;20029;-50
2022/07/19 02:58:31;;;;;;;13.77;5.18;;;19.90;82.80;;;;;;4988141;28;20284;-48
2022/07/19 03:00:56;;;;;;;8.45;3.13;;;19.90;82.60;;;;;;4990177;28;20034;-43
2022/07/19 03:06:06;;;;;;;6.72;3.83;;;19.90;82.90;;;;;;4991733;28;20115;-46
2022/07/19 03:08:31;;;;;;;6.75;3.17;;;19.80;82.90;;;;;;4991339;28;20050;-48
2022/07/19 03:10:57;;;;;;;7.50;3.50;;;19.80;83.30;;;;;;4991868;28;20039;-48
2022/07/19 03:13:22;;;;;;;6.75;3.50;;;19.70;83.70;;;;;;4991877;28;20393;-49
2022/07/19 03:15:48;;;;;;;6.45;3.83;;;19.60;84.20;;;;;;4983931;28;20039;-48
2022/07/19 03:18:14;;;;;;;9.40;3.65;;;19.60;84.70;;;;;;4971673;28;20042;-46
2022/07/19 03:20:39;;;;;;;5.38;3.15;;;19.50;84.80;;;;;;4972429;28;20027;-46
2022/07/19 03:23:05;;;;;;;7.07;3.63;;;19.50;85.30;;;;;;4972363;28;20057;-48
2022/07/19 03:25:30;;;;;;;13.50;3.42;;;19.40;85.30;;;;;;4972333;28;20023;-51
2022/07/19 03:27:55;;;;;;;5.88;3.55;;;19.40;85.70;;;;;;4990545;28;20038;-47
2022/07/19 03:30:21;;;;;;;10.23;3.83;;;19.30;85.80;;;;;;4991619;28;20113;-50
2022/07/19 03:32:47;;;;;;;5.93;3.92;;;19.30;86.40;;;;;;4991563;28;20440;-50
2022/07/19 03:35:13;;;;;;;5.97;3.10;;;19.30;86.40;;;;;;4991825;28;20026;-50
2022/07/19 03:37:38;;;;;;;5.88;3.55;;;19.30;86.50;;;;;;4990990;28;20030;-46
2022/07/19 03:40:05;;;;;;;8.95;3.28;;;19.30;86.50;;;;;;4981046;28;20037;-42
2022/07/19 03:42:30;;;;;;;5.90;3.80;;;19.30;86.70;;;;;;4971990;28;20022;-46
2022/07/19 03:44:56;;;;;;;3.85;3.10;;;19.40;87.10;;;;;;4972025;28;20027;-47
2022/07/19 03:47:21;;;;;;;5.53;3.47;;;19.40;87.30;;;;;;4983855;28;20033;-48
2022/07/19 03:49:47;;;;;;;5.68;3.63;;;19.40;86.90;;;;;;4990795;28;20037;-44
2022/07/19 03:52:13;;;;;;;6.68;3.40;;;19.40;86.40;;;;;;4991681;28;20105;-45
2022/07/19 03:54:39;;;;;;;7.28;3.35;;;19.40;86.50;;;;;;4989604;28;20029;-45
2022/07/19 03:57:04;;;;;;;5.88;3.35;;;19.40;86.50;;;;;;4990773;28;20022;-44
2022/07/19 03:59:30;;;;;;;7.82;3.50;;;19.40;86.90;;;;;;4991227;28;20026;-47
2022/07/19 04:01:55;;;;;;;6.25;3.83;;;19.40;86.80;;;;;;4991041;28;20038;-44
2022/07/19 04:04:21;;;;;;;4.53;3.22;;;19.40;86.80;;;;;;4987728;28;20030;-44
2022/07/19 04:06:47;;;;;;;9.00;3.85;;;19.40;87.10;;;;;;4990875;28;20498;-50
2022/07/19 04:09:12;;;;;;;8.45;3.10;;;19.40;87.10;;;;;;4990740;28;20030;-49
2022/07/19 04:11:38;;;;;;;7.18;3.90;;;19.50;87.00;;;;;;4990686;28;20042;-47
2022/07/19 04:14:03;;;;;;;6.97;4.10;;;19.50;86.90;;;;;;4990897;28;20414;-45
2022/07/19 04:16:29;;;;;;;9.82;4.13;;;19.60;86.60;;;;;;4991291;28;20026;-49
2022/07/19 04:18:54;;;;;;;11.00;3.78;;;19.50;86.80;;;;;;4988944;28;20517;-47
2022/07/19 04:21:20;;;;;;;10.95;3.30;;;19.60;86.60;;;;;;4971645;28;20101;-49
2022/07/19 04:23:45;;;;;;;4.88;3.10;;;19.70;86.40;;;;;;4970192;28;20441;-49
2022/07/19 04:26:11;;;;;;;7.80;3.90;;;19.80;86.30;;;;;;4971486;28;20023;-47
2022/07/19 04:28:36;;;;;;;4.97;3.38;;;19.80;86.30;;;;;;4970971;28;20034;-46
2022/07/19 04:31:02;;;;;;;5.43;3.08;;;19.80;86.20;;;;;;4982301;28;20027;-48
2022/07/19 04:33:27;;;;;;;5.22;3.20;;;19.90;86.30;;;;;;4990675;28;20030;-53
2022/07/19 04:35:53;;;;;;;7.10;3.88;;;19.90;85.80;;;;;;4990745;28;20448;-45
2022/07/19 04:38:19;;;;;;;10.48;3.60;;;20.00;86.00;;;;;;4990260;28;20551;-45
2022/07/19 04:40:45;;;;;;;8.95;3.83;;;19.90;86.00;;;;;;4990565;28;20034;-44
2022/07/19 04:43:11;;;;;;;7.90;3.10;;;19.90;86.20;;;;;;4990331;28;20371;-45
2022/07/19 04:45:36;;;;;;;5.10;3.17;;;20.00;86.20;;;;;;4980250;28;20644;-46
2022/07/19 04:48:02;;;;;;;10.57;3.83;;;19.90;86.10;;;;;;4970478;28;20097;-43
2022/07/19 04:50:27;;;;;;;8.85;3.60;;;20.00;86.40;;;;;;4970986;28;20115;-45
2022/07/19 04:52:53;;;;;;;9.15;3.22;;;20.10;86.10;;;;;;4971241;28;20026;-50
2022/07/19 04:55:18;;;;;;;6.10;3.65;;;20.30;85.70;;;;;;4973935;28;20385;-46
2022/07/19 04:57:44;;;;;;;3.88;3.13;;;20.60;85.10;;;;;;4989811;28;20037;-47
2022/07/19 05:02:52;;;;;;;5.30;3.25;;;21.70;80.60;;;;;;4949747;28;20043;-46
2022/07/19 05:05:18;;;;;;;8.20;3.05;;;22.30;77.80;;;;;;4962708;28;20026;-48
2022/07/19 05:07:44;;;;;;;5.90;2.65;;;22.90;75.70;;;;;;4970247;28;20023;-48
2022/07/19 05:10:10;;;;;;;4.88;3.13;;;23.60;74.00;;;;;;4970801;28;20023;-50
2022/07/19 05:12:36;;;;;;;5.68;2.67;;;24.60;71.70;;;;;;4970647;28;20054;-49
2022/07/19 05:15:01;;;;;;;7.80;3.03;;;24.70;70.40;;;;;;4970824;28;20062;-50
2022/07/19 05:17:27;;;;;;;5.40;2.50;;;25.10;69.20;;;;;;4969709;28;20038;-48
2022/07/19 05:19:52;;;;;;;3.92;2.72;;;25.40;68.70;;;;;;4961058;28;20037;-50
2022/07/19 05:22:18;;;;;;;6.13;2.80;;;25.70;67.80;;;;;;4951457;28;20039;-48
2022/07/19 05:24:43;;;;;;;8.20;2.80;;;26.30;66.80;;;;;;4950379;28;20111;-49
2022/07/19 05:27:09;;;;;;;5.50;2.50;;;27.20;64.60;;;;;;4950738;28;20035;-48
2022/07/19 05:29:34;;;;;;;3.72;2.40;;;26.90;64.90;;;;;;4952286;28;20031;-47
2022/07/19 05:32:00;;;;;;;9.75;2.83;;;27.20;64.50;;;;;;4951470;28;20031;-46
2022/07/19 05:34:25;;;;;;;8.15;2.53;;;28.30;63.30;;;;;;4952334;28;20031;-52
2022/07/19 05:36:51;;;;;;;8.80;2.58;;;28.80;61.70;;;;;;4950537;28;20070;-47
2022/07/19 05:39:16;;;;;;;5.88;2.60;;;29.50;60.80;;;;;;4951454;28;20042;-48
2022/07/19 05:41:42;;;;;;;7.07;2.17;;;29.60;60.10;;;;;;4951103;28;20545;-47
2022/07/19 05:44:08;;;;;;;9.75;2.42;;;29.90;59.60;;;;;;4956806;28;20027;-47
2022/07/19 05:46:37;;;;;;;8.27;3.03;;;29.90;59.10;;;;;;4961571;28;20027;-47
2022/07/19 05:49:02;;;;;;;4.13;2.40;;;29.90;59.40;;;;;;4950444;28;20028;-47
2022/07/19 05:51:28;;;;;;;4.45;2.47;;;29.90;58.60;;;;;;4950853;28;20133;-46
2022/07/19 05:53:53;;;;;;;4.60;2.72;;;30.50;58.70;;;;;;4949286;29;20483;-49
2022/07/19 05:56:19;;;;;;;10.90;2.75;;;31.00;58.10;;;;;;4951128;29;20487;-47
2022/07/19 05:58:44;;;;;;;4.30;2.33;;;31.70;56.50;;;;;;4949972;28;20035;-48
2022/07/19 06:01:19;;;;;;;6.22;2.25;;;32.00;56.40;;;;;;4951549;28;20407;-48
2022/07/19 06:03:46;;;;;;;10.40;2.83;;;32.10;56.40;;;;;;4958722;28;20082;-49
2022/07/19 06:06:12;;;;;;;6.45;2.35;;;32.50;56.00;;;;;;4953199;28;20182;-50
2022/07/19 06:08:37;;;;;;;5.38;2.63;;;33.10;54.60;;;;;;4949995;29;20115;-47
2022/07/19 06:11:03;;;;;;;7.43;2.40;;;33.80;53.40;;;;;;4954301;28;20062;-48
2022/07/19 06:13:28;;;;;;;11.95;2.50;;;33.30;53.70;;;;;;4938044;29;20480;-45
2022/07/19 06:15:54;;;;;;;5.00;2.22;;;33.40;53.60;;;;;;4937739;28;20023;-50
2022/07/19 06:18:19;;;;;;;6.55;2.15;;;33.30;53.40;;;;;;4959069;28;20043;-47
2022/07/19 06:20:45;;;;;;;2.53;1.92;;;33.50;53.30;;;;;;4952358;28;20023;-46
2022/07/19 06:23:10;;;;;;;4.60;2.35;;;33.90;52.40;;;;;;4952436;28;20487;-50
2022/07/19 06:25:36;;;;;;;4.85;1.90;;;34.50;51.90;;;;;;4950576;28;20515;-50
2022/07/19 06:28:02;;;;;;;8.05;1.85;;;34.50;52.10;;;;;;4949139;29;20027;-48
2022/07/19 06:30:28;;;;;;;3.42;2.50;;;34.70;51.80;;;;;;4950548;28;20403;-49
2022/07/19 06:32:53;;;;;;;10.15;2.45;;;34.80;52.00;;;;;;4948124;28;20027;-51
2022/07/19 06:35:19;;;;;;;5.68;2.00;;;34.20;52.50;;;;;;4955573;28;20027;-50
2022/07/19 06:37:44;;;;;;;3.47;1.95;;;34.50;52.10;;;;;;4964074;28;20027;-47
2022/07/19 06:40:10;;;;;;;3.60;1.73;;;35.10;52.00;;;;;;4964722;28;20023;-47
2022/07/19 06:42:36;;;;;;;12.00;2.28;;;35.70;50.50;;;;;;4972954;28;20070;-46
2022/07/19 06:45:02;;;;;;;3.78;1.90;;;36.00;50.00;;;;;;4973065;28;20034;-44
2022/07/19 06:47:34;;;;;;;3.25;2.63;;;36.40;49.30;;;;;;4970988;28;20027;-46
2022/07/19 06:49:59;;;;;;;5.25;2.10;;;36.30;49.50;;;;;;4971534;28;20031;-46
2022/07/19 06:52:25;;;;;;;4.78;2.33;;;35.80;49.20;;;;;;4972774;28;20565;-44
2022/07/19 06:54:51;;;;;;;8.63;1.85;;;35.50;49.60;;;;;;4973182;28;20033;-45
2022/07/19 06:57:16;;;;;;;2.88;2.05;;;35.50;50.70;;;;;;4972577;28;20027;-44
2022/07/19 06:59:42;;;;;;;4.32;1.88;;;35.40;50.40;;;;;;4972578;28;20449;-44
2022/07/19 07:02:08;;;;;;;6.55;1.77;;;35.30;50.50;;;;;;4971268;28;20592;-44
2022/07/19 07:04:34;;;;;;;6.57;2.13;;;35.80;50.20;;;;;;4970636;28;20493;-46
2022/07/19 07:06:59;;;;;;;5.97;2.13;;;36.60;49.50;;;;;;4965110;28;20031;-45
2022/07/19 07:09:25;;;;;;;5.70;2.20;;;37.00;48.40;;;;;;4953432;28;20027;-45
2022/07/19 07:11:51;;;;;;;4.35;1.63;;;37.00;48.80;;;;;;4953126;28;20046;-44
2022/07/19 07:14:16;;;;;;;3.97;1.85;;;37.30;48.30;;;;;;4953271;28;20028;-46
2022/07/19 07:16:42;;;;;;;2.53;1.80;;;37.40;48.60;;;;;;4964042;28;20030;-45
2022/07/19 07:19:08;;;;;;;4.22;1.75;;;37.60;48.30;;;;;;4955549;28;20486;-46
2022/07/19 07:21:34;;;;;;;4.47;1.80;;;38.10;47.90;;;;;;4934095;29;20043;-44
2022/07/19 07:24:05;;;;;;;3.53;2.20;;;38.40;47.70;;;;;;4956315;28;20027;-44
2022/07/19 07:26:31;;;;;;;9.27;1.88;;;38.50;47.30;;;;;;4955046;28;20398;-45
2022/07/19 07:28:57;;;;;;;4.93;1.85;;;38.90;47.20;;;;;;4952164;28;20453;-44
2022/07/19 07:31:23;;;;;;;5.80;2.13;;;38.80;47.50;;;;;;4952980;28;20027;-45
2022/07/19 07:33:49;;;;;;;4.10;2.08;;;38.80;47.00;;;;;;4952714;28;20085;-44
2022/07/19 07:36:15;;;;;;;4.25;1.83;;;38.70;47.40;;;;;;4953000;28;20399;-47
2022/07/19 07:38:40;;;;;;;7.78;2.17;;;38.80;47.30;;;;;;4952120;28;20028;-44
2022/07/19 07:41:06;;;;;;;3.88;1.77;;;38.80;47.30;;;;;;4951178;28;20045;-46
2022/07/19 07:43:31;;;;;;;11.63;2.10;;;38.70;47.30;;;;;;4952820;28;20480;-44
2022/07/19 07:45:57;;;;;;;4.00;1.98;;;39.30;47.00;;;;;;4951923;28;20509;-45
2022/07/19 07:48:23;;;;;;;10.88;2.17;;;39.40;46.60;;;;;;4951208;28;20395;-47
2022/07/19 07:50:49;;;;;;;3.22;1.70;;;39.90;45.90;;;;;;4952665;28;20042;-48
2022/07/19 07:53:14;;;;;;;26.20;22.65;;;40.00;45.70;;;;;;4951572;28;20059;-44
2022/07/19 07:55:40;;;;;;;17.02;14.73;;;40.30;45.00;;;;;;4948735;28;20027;-47
2022/07/19 07:58:08;;;;;;;7.68;4.10;;;40.40;45.10;;;;;;4958371;28;20038;-45
2022/07/19 08:00:34;;;;;;;7.63;1.98;;;40.30;44.50;;;;;;4952334;28;20066;-46
2022/07/19 08:02:59;;;;;;;6.10;2.00;;;40.20;45.10;;;;;;4968096;28;20062;-45
2022/07/19 08:05:25;;;;;;;4.20;1.77;;;40.70;45.50;;;;;;4967557;28;20372;-43
2022/07/19 08:07:50;;;;;;;4.60;1.55;;;41.40;45.20;;;;;;4969147;28;20023;-43
2022/07/19 08:10:16;;;;;;;5.43;1.88;;;41.60;43.60;;;;;;4955988;28;20133;-49
2022/07/19 08:12:41;;;;;;;2.38;1.45;;;41.70;43.70;;;;;;4952488;28;20495;-47
2022/07/19 08:15:07;;;;;;;9.30;1.85;;;41.70;43.40;;;;;;4952281;28;20126;-44
2022/07/19 08:17:33;;;;;;;7.68;2.22;;;41.60;43.50;;;;;;4961294;28;20498;-43
2022/07/19 08:19:59;;;;;;;5.68;2.05;;;41.80;43.20;;;;;;4956374;28;20039;-46
2022/07/19 08:22:25;;;;;;;9.00;1.80;;;41.80;43.30;;;;;;4971613;28;20030;-43
2022/07/19 08:24:50;;;;;;;6.85;1.65;;;41.60;43.70;;;;;;4971680;28;20023;-46
2022/07/19 08:27:16;;;;;;;5.32;1.80;;;41.60;43.40;;;;;;4971162;28;20027;-43
2022/07/19 08:29:41;;;;;;;1.50;1.20;;;41.80;42.90;;;;;;4971536;28;20364;-48
2022/07/19 08:32:07;;;;;;;4.68;1.23;;;41.70;42.90;;;;;;4971720;28;20084;-43
2022/07/19 08:34:32;;;;;;;8.93;1.95;;;41.10;43.10;;;;;;4969982;28;20112;-44
2022/07/19 08:37:00;;;;;;;5.40;1.63;;;41.00;43.00;;;;;;4970852;28;20069;-43
2022/07/19 08:39:25;;;;;;;2.00;1.67;;;40.70;42.70;;;;;;4971846;28;20422;-47
2022/07/19 08:41:51;;;;;;;8.35;1.60;;;40.10;43.90;;;;;;4971363;28;20031;-43
2022/07/19 08:44:17;;;;;;;12.00;1.88;;;39.70;43.70;;;;;;4970466;28;20054;-43
2022/07/19 08:46:43;;;;;;;3.78;1.80;;;39.30;43.70;;;;;;4970134;28;20114;-44
2022/07/19 08:49:10;;;;;;;3.88;1.55;;;39.20;43.80;;;;;;4970932;28;20526;-48
2022/07/19 08:51:36;;;;;;;4.68;1.35;;;39.00;44.10;;;;;;4971209;28;20026;-48
2022/07/19 08:54:02;;;;;;;11.35;2.33;;;38.80;44.20;;;;;;4970071;28;20027;-49
2022/07/19 08:59:13;;;;;;;4.35;1.48;;;38.50;44.70;;;;;;4970850;28;20061;-45
2022/07/19 09:01:38;;;;;;;7.70;2.15;;;38.40;44.80;;;;;;4971037;28;20521;-49
2022/07/19 09:04:10;;;;;;;4.20;1.70;;;38.10;45.00;;;;;;4971057;28;20097;-44
2022/07/19 09:06:49;;;;;;;1.38;1.10;;;37.90;44.80;;;;;;4971150;28;20043;-49
2022/07/19 09:09:20;;;;;;;7.88;1.60;;;37.80;44.80;;;;;;4971146;28;20076;-46
2022/07/19 09:11:51;;;;;;;5.40;1.60;;;37.60;44.70;;;;;;4969510;28;20057;-49
2022/07/19 09:14:19;;;;;;;4.45;1.48;;;37.40;44.70;;;;;;4971074;28;20118;-44
2022/07/19 09:16:51;;;;;;;4.88;1.70;;;37.50;45.00;;;;;;4970931;28;20130;-53
2022/07/19 09:19:18;;;;;;;3.47;1.63;;;37.50;44.80;;;;;;4971122;28;20122;-47
2022/07/19 09:22:03;;;;;;;4.88;1.63;;;37.70;45.10;;;;;;4970199;28;20490;-47
2022/07/19 09:24:31;;;;;;;2.35;1.35;;;37.70;44.00;;;;;;4971146;28;20447;-44
2022/07/19 09:27:06;;;;;;;4.38;1.40;;;37.70;43.90;;;;;;4968987;28;20030;-47
2022/07/19 09:29:34;;;;;;;4.10;1.48;;;37.80;44.40;;;;;;4971353;28;20025;-48
2022/07/19 09:32:23;;;;;;;7.65;2.08;;;37.80;43.90;;;;;;4971084;28;20514;-44
2022/07/19 09:35:04;;;;;;;2.17;1.35;;;37.70;43.80;;;;;;4970579;28;20047;-44
2022/07/19 09:37:32;;;;;;;4.00;1.50;;;37.60;44.60;;;;;;4970824;28;20080;-50
2022/07/19 09:40:00;;;;;;;7.68;1.50;;;37.40;44.30;;;;;;4971445;28;20051;-44
2022/07/19 09:42:39;;;;;;;3.22;1.73;;;37.30;44.50;;;;;;4971062;28;20435;-45
2022/07/19 09:45:09;;;;;;;2.50;1.55;;;37.20;44.60;;;;;;4969638;28;20453;-47
2022/07/19 09:47:37;;;;;;;2.83;1.50;;;37.00;44.50;;;;;;4970007;28;20027;-49
2022/07/19 09:50:05;;;;;;;10.38;2.15;;;37.00;44.90;;;;;;4970650;28;20058;-46
2022/07/19 09:52:34;;;;;;;4.50;1.25;;;36.90;44.90;;;;;;4969245;28;20395;-47
2022/07/19 09:55:03;;;;;;;6.05;2.00;;;36.80;44.70;;;;;;4970543;28;20458;-44
2022/07/19 09:57:39;;;;;;;2.05;1.27;;;36.70;45.00;;;;;;4970192;28;20097;-50
2022/07/19 10:00:07;;;;;;;6.05;1.83;;;36.50;45.30;;;;;;4971075;28;20023;-44
2022/07/19 10:02:38;;;;;;;4.05;1.50;;;36.60;45.80;;;;;;4970466;28;20062;-50
2022/07/19 10:05:09;;;;;;;9.43;2.13;;;36.60;45.70;;;;;;4970429;28;20019;-50
2022/07/19 10:07:34;;;;;;;5.53;1.83;;;36.40;45.50;;;;;;4969591;28;20096;-47
2022/07/19 10:10:06;;;;;;;6.05;1.45;;;36.40;46.30;;;;;;4969309;28;20031;-48
2022/07/19 10:12:32;;;;;;;5.70;1.42;;;36.30;46.40;;;;;;4970165;28;20034;-48
2022/07/19 10:14:58;;;;;;;4.88;1.30;;;36.20;45.60;;;;;;4969055;28;20402;-48
2022/07/19 10:17:41;;;;;;;4.05;1.45;;;36.10;45.90;;;;;;4969431;28;20049;-48
2022/07/19 10:20:08;;;;;;;1.38;1.23;;;36.00;45.90;;;;;;4970423;28;20491;-45
2022/07/19 10:22:34;;;;;;;1.65;1.30;;;35.80;46.50;;;;;;4969999;28;20115;-45
2022/07/19 10:25:11;;;;;;;5.88;1.65;;;35.60;46.90;;;;;;4970101;28;20114;-50
2022/07/19 10:27:42;;;;;;;7.15;1.65;;;35.60;47.30;;;;;;4969386;28;20054;-46
2022/07/19 10:30:07;;;;;;;2.95;1.30;;;35.50;46.90;;;;;;4970223;28;20520;-49
2022/07/19 10:32:33;;;;;;;5.35;1.40;;;35.40;46.60;;;;;;4969827;28;20129;-46
2022/07/19 10:35:24;;;;;;;4.95;1.52;;;35.30;46.60;;;;;;4968820;28;20061;-46
2022/07/19 10:38:01;;;;;;;8.73;2.45;;;35.20;47.10;;;;;;4970197;28;20525;-45
2022/07/19 10:40:47;;;;;;;10.73;1.40;;;35.20;46.40;;;;;;4970134;28;20041;-47
2022/07/19 10:43:20;;;;;;;7.18;2.17;;;34.90;46.30;;;;;;4970086;28;20038;-45
2022/07/19 10:46:01;;;;;;;4.38;1.77;;;34.70;46.20;;;;;;4968560;28;20114;-44
2022/07/19 10:48:47;;;;;;;3.88;1.63;;;34.60;47.00;;;;;;4969125;28;20031;-49
2022/07/19 10:51:34;;;;;;;4.30;1.45;;;34.50;46.80;;;;;;4969612;28;20026;-51
2022/07/19 10:54:05;;;;;;;3.72;1.70;;;34.50;47.70;;;;;;4969749;28;20023;-46
2022/07/19 10:56:34;;;;;;;4.07;1.85;;;34.40;47.60;;;;;;4969567;28;20026;-45
2022/07/19 10:59:03;;;;;;;5.65;1.75;;;34.30;47.00;;;;;;4969055;28;20019;-48
2022/07/19 11:01:33;;;;;;;4.93;1.90;;;34.30;47.20;;;;;;4970927;28;20027;-46
2022/07/19 11:04:25;;;;;;;5.82;1.65;;;34.20;47.30;;;;;;4969712;28;20023;-43
2022/07/19 11:07:08;;;;;;;9.15;1.92;;;34.00;47.70;;;;;;4969007;28;20023;-44
2022/07/19 11:09:48;;;;;;;10.32;1.70;;;34.10;47.40;;;;;;4969454;28;20341;-45
2022/07/19 11:12:24;;;;;;;2.67;1.77;;;33.90;47.60;;;;;;4969366;28;20027;-46
2022/07/19 11:14:50;;;;;;;3.03;1.65;;;33.80;47.80;;;;;;4969666;28;20071;-44
2022/07/19 11:17:15;;;;;;;2.97;1.50;;;33.70;48.00;;;;;;4968851;28;20034;-46
2022/07/19 11:19:58;;;;;;;3.83;1.77;;;33.70;48.00;;;;;;4969460;28;20058;-46
2022/07/19 11:22:23;;;;;;;2.67;2.10;;;33.70;49.50;;;;;;4971502;28;20027;-48
2022/07/19 11:24:49;;;;;;;6.22;2.00;;;33.70;48.40;;;;;;4973338;28;20102;-48
2022/07/19 11:27:16;;;;;;;6.25;1.70;;;33.70;48.00;;;;;;4971940;28;20027;-50
2022/07/19 11:29:59;;;;;;;7.75;1.95;;;33.80;47.90;;;;;;4973340;28;20031;-45
2022/07/19 11:32:24;;;;;;;5.47;2.58;;;33.70;48.60;;;;;;4972035;28;20092;-45
2022/07/19 11:35:02;;;;;;;6.15;1.55;;;33.80;48.30;;;;;;4971090;28;20031;-50
2022/07/19 11:37:30;;;;;;;5.22;1.80;;;33.80;47.70;;;;;;4971418;28;20039;-46
2022/07/19 11:39:57;;;;;;;9.57;1.70;;;33.90;47.80;;;;;;4972460;28;20509;-48
2022/07/19 11:42:56;;;;;;;7.78;1.60;;;33.80;48.80;;;;;;4971852;28;20480;-46
2022/07/19 11:45:24;;;;;;;6.82;1.77;;;33.90;48.20;;;;;;4976798;28;20034;-46
2022/07/19 11:47:54;;;;;;;8.73;1.60;;;34.00;47.70;;;;;;4969794;28;20023;-47
2022/07/19 11:50:22;;;;;;;3.80;1.80;;;34.00;48.20;;;;;;4971685;28;20395;-47
2022/07/19 11:52:51;;;;;;;6.95;1.85;;;33.90;47.60;;;;;;4971627;28;20068;-44
2022/07/19 11:55:22;;;;;;;9.68;2.10;;;33.90;47.60;;;;;;4972001;28;20098;-45
2022/07/19 11:57:48;;;;;;;4.57;1.75;;;33.90;47.80;;;;;;4970958;28;20411;-46
2022/07/19 12:00:15;;;;;;;5.82;2.20;;;33.90;47.70;;;;;;4971852;28;20493;-47
2022/07/19 12:03:13;;;;;;;7.70;2.05;;;33.90;47.80;;;;;;4971592;28;20125;-44
2022/07/19 12:05:39;;;;;;;7.75;1.88;;;34.00;48.00;;;;;;4986154;28;20074;-44
2022/07/19 12:08:07;;;;;;;6.50;1.90;;;33.90;48.10;;;;;;4971249;28;20065;-45
2022/07/19 12:10:35;;;;;;;6.38;1.80;;;34.00;48.10;;;;;;4970705;28;20080;-48
2022/07/19 12:13:02;;;;;;;5.72;1.83;;;34.00;47.90;;;;;;4972111;28;20558;-45
2022/07/19 12:15:42;;;;;;;4.32;2.13;;;34.00;47.90;;;;;;4972188;28;20510;-43
2022/07/19 12:18:08;;;;;;;5.15;1.65;;;34.10;47.90;;;;;;4971046;28;20102;-48
2022/07/19 12:20:33;;;;;;;2.45;1.58;;;34.10;48.00;;;;;;4971596;28;20107;-48
2022/07/19 12:23:18;;;;;;;4.50;1.60;;;34.20;47.30;;;;;;4971439;28;20054;-49
2022/07/19 12:25:44;;;;;;;4.10;1.70;;;34.10;47.30;;;;;;4971937;28;20038;-47
2022/07/19 12:28:10;;;;;;;4.45;1.88;;;34.10;47.10;;;;;;4970697;28;20027;-45
2022/07/19 12:30:36;;;;;;;5.00;2.00;;;34.10;47.30;;;;;;4971356;28;20038;-47
2022/07/19 12:33:13;;;;;;;5.43;1.98;;;34.20;48.00;;;;;;4970785;28;20031;-46
2022/07/19 12:35:46;;;;;;;8.73;2.30;;;34.40;47.60;;;;;;4970368;28;20023;-48
2022/07/19 12:38:13;;;;;;;4.90;2.13;;;34.40;48.00;;;;;;4970614;28;20081;-49
2022/07/19 12:40:40;;;;;;;3.65;1.75;;;34.50;47.50;;;;;;4971307;28;20571;-49
2022/07/19 12:43:09;;;;;;;1.98;1.75;;;34.50;47.10;;;;;;4971377;28;20037;-49
2022/07/19 12:45:43;;;;;;;4.15;1.75;;;34.60;47.00;;;;;;4971310;28;20494;-45
2022/07/19 12:48:11;;;;;;;9.10;1.55;;;34.60;47.30;;;;;;4970616;28;20390;-44
2022/07/19 12:50:39;;;;;;;7.35;2.08;;;34.50;46.60;;;;;;4971165;28;20030;-49
2022/07/19 12:53:07;;;;;;;4.05;1.67;;;34.60;46.80;;;;;;4971039;28;20034;-44
2022/07/19 12:55:34;;;;;;;4.80;1.80;;;34.60;47.10;;;;;;4971174;28;20023;-49